createdAt,value
2023-04-19T00:00:47.714Z,13.00
2023-04-19T00:03:18.501Z,11.30
2023-04-19T00:05:47.636Z,8.60
2023-04-19T00:08:15.925Z,25.80
2023-04-19T00:10:44.650Z,14.10
2023-04-19T00:13:12.944Z,10.40
2023-04-19T00:15:41.178Z,11.40
2023-04-19T00:18:09.633Z,11.90
2023-04-19T00:20:39.625Z,12.70
2023-04-19T00:23:07.876Z,10.10
2023-04-19T00:25:36.106Z,13.30
2023-04-19T00:28:05.135Z,15.50
2023-04-19T00:30:33.407Z,9.40
2023-04-19T00:33:02.112Z,9.50
2023-04-19T00:35:30.695Z,16.80
2023-04-19T00:37:58.886Z,13.90
2023-04-19T00:40:27.952Z,12.40
2023-04-19T00:42:56.118Z,16.40
2023-04-19T00:45:26.164Z,13.10
2023-04-19T00:47:54.602Z,12.90
2023-04-19T00:50:24.528Z,9.80
2023-04-19T00:52:55.134Z,13.50
2023-04-19T00:55:25.397Z,9.20
2023-04-19T00:57:54.677Z,11.90
2023-04-19T01:00:23.113Z,10.30
2023-04-19T01:02:52.795Z,12.30
2023-04-19T01:05:21.092Z,9.30
2023-04-19T01:07:49.268Z,10.30
2023-04-19T01:10:18.380Z,16.00
2023-04-19T01:12:46.605Z,13.20
2023-04-19T01:15:14.791Z,16.30
2023-04-19T01:17:43.337Z,12.40
2023-04-19T01:20:11.873Z,11.90
2023-04-19T01:22:40.446Z,10.80
2023-04-19T01:25:13.211Z,11.00
2023-04-19T01:27:44.731Z,12.40
2023-04-19T01:30:13.223Z,12.10
2023-04-19T01:32:42.676Z,10.90
2023-04-19T01:35:14.090Z,11.80
2023-04-19T01:37:42.316Z,13.80
2023-04-19T01:40:12.209Z,11.80
2023-04-19T01:42:40.547Z,20.20
2023-04-19T01:45:12.068Z,13.90
2023-04-19T01:47:40.380Z,10.30
2023-04-19T01:50:09.232Z,13.40
2023-04-19T01:52:37.475Z,11.60
2023-04-19T01:55:06.856Z,11.00
2023-04-19T01:57:35.181Z,14.00
2023-04-19T02:00:03.699Z,11.60
2023-04-19T02:02:42.638Z,16.90
2023-04-19T02:05:11.819Z,12.40
2023-04-19T02:07:40.606Z,10.20
2023-04-19T02:10:11.830Z,16.70
2023-04-19T02:12:41.520Z,16.90
2023-04-19T02:15:10.094Z,11.60
2023-04-19T02:17:39.076Z,9.30
2023-04-19T02:20:09.332Z,13.70
2023-04-19T02:22:37.633Z,12.70
2023-04-19T02:25:06.318Z,12.60
2023-04-19T02:27:34.979Z,13.00
2023-04-19T02:30:03.263Z,13.40
2023-04-19T02:32:32.742Z,9.30
2023-04-19T02:35:01.131Z,9.60
2023-04-19T02:37:30.984Z,12.70
2023-04-19T02:39:59.169Z,12.50
2023-04-19T02:42:30.498Z,12.20
2023-04-19T02:44:58.708Z,13.20
2023-04-19T02:47:27.908Z,9.00
2023-04-19T02:49:57.098Z,15.00
2023-04-19T02:52:26.969Z,14.50
2023-04-19T02:54:55.594Z,11.60
2023-04-19T02:57:23.976Z,12.80
2023-04-19T02:59:52.482Z,9.70
2023-04-19T03:02:20.788Z,13.30
2023-04-19T03:04:49.237Z,8.90
2023-04-19T03:07:18.277Z,10.30
2023-04-19T03:09:46.650Z,11.20
2023-04-19T03:12:15.224Z,11.90
2023-04-19T03:14:43.885Z,12.40
2023-04-19T03:17:12.268Z,9.50
2023-04-19T03:19:40.574Z,10.40
2023-04-19T03:22:08.813Z,15.20
2023-04-19T03:24:38.149Z,13.70
2023-04-19T03:27:20.023Z,9.30
2023-04-19T03:29:50.904Z,9.40
2023-04-19T03:32:19.462Z,14.40
2023-04-19T03:34:47.616Z,12.00
2023-04-19T03:37:18.497Z,15.50
2023-04-19T03:39:47.304Z,15.00
2023-04-19T03:42:18.293Z,15.10
2023-04-19T03:45:10.546Z,14.20
2023-04-19T03:47:42.214Z,11.10
2023-04-19T03:50:11.281Z,12.50
2023-04-19T03:52:39.868Z,13.60
2023-04-19T03:55:09.155Z,10.30
2023-04-19T03:57:41.157Z,8.90
2023-04-19T04:00:19.876Z,14.70
2023-04-19T04:02:51.083Z,9.80
2023-04-19T04:05:19.680Z,13.00
2023-04-19T04:07:47.922Z,15.30
2023-04-19T04:10:16.366Z,15.80
2023-04-19T04:12:45.000Z,12.60
2023-04-19T04:15:16.308Z,13.80
2023-04-19T04:17:51.391Z,15.90
2023-04-19T04:20:20.733Z,14.90
2023-04-19T04:22:49.057Z,13.60
2023-04-19T04:25:22.792Z,14.40
2023-04-19T04:27:53.008Z,16.50
2023-04-19T04:30:27.763Z,14.60
2023-04-19T04:32:58.463Z,13.80
2023-04-19T04:35:27.745Z,15.90
2023-04-19T04:38:17.481Z,12.80
2023-04-19T04:40:55.261Z,14.60
2023-04-19T04:43:26.976Z,12.40
2023-04-19T04:46:00.321Z,20.20
2023-04-19T04:48:34.367Z,13.10
2023-04-19T04:51:05.753Z,14.70
2023-04-19T04:53:34.274Z,16.50
2023-04-19T04:56:04.808Z,11.10
2023-04-19T04:58:33.621Z,12.50
2023-04-19T05:01:05.933Z,17.60
2023-04-19T05:03:38.741Z,14.10
2023-04-19T05:06:09.314Z,18.80
2023-04-19T05:08:38.861Z,13.50
2023-04-19T05:11:21.264Z,12.40
2023-04-19T05:13:49.663Z,12.30
2023-04-19T05:16:20.207Z,12.20
2023-04-19T05:18:49.311Z,14.00
2023-04-19T05:21:17.695Z,15.20
2023-04-19T05:23:46.023Z,14.70
2023-04-19T05:26:15.706Z,11.90
2023-04-19T05:28:45.799Z,14.10
2023-04-19T05:31:22.385Z,15.00
2023-04-19T05:34:10.583Z,13.90
2023-04-19T05:36:38.801Z,11.70
2023-04-19T05:39:07.536Z,15.30
2023-04-19T05:41:36.603Z,13.40
2023-04-19T05:44:05.513Z,11.10
2023-04-19T05:46:33.824Z,10.60
2023-04-19T05:49:03.196Z,8.80
2023-04-19T05:51:41.412Z,12.50
2023-04-19T05:54:14.873Z,12.10
2023-04-19T05:56:48.795Z,15.60
2023-04-19T05:59:17.710Z,12.20
2023-04-19T06:01:46.516Z,10.20
2023-04-19T06:04:16.176Z,14.40
2023-04-19T06:06:45.062Z,12.30
2023-04-19T06:09:15.934Z,14.50
2023-04-19T06:11:50.916Z,12.90
2023-04-19T06:14:20.095Z,11.10
2023-04-19T06:16:48.538Z,10.60
2023-04-19T06:19:16.838Z,13.60
2023-04-19T06:21:45.236Z,12.30
2023-04-19T06:24:14.323Z,11.50
2023-04-19T06:26:43.376Z,11.10
2023-04-19T06:29:11.663Z,9.90
2023-04-19T06:31:40.093Z,9.80
2023-04-19T06:34:08.379Z,11.50
2023-04-19T06:36:36.653Z,9.80
2023-04-19T06:39:04.940Z,9.10
2023-04-19T06:41:33.210Z,14.00
2023-04-19T06:44:01.473Z,13.40
2023-04-19T06:46:31.051Z,9.80
2023-04-19T06:48:59.467Z,11.40
2023-04-19T06:51:28.123Z,10.80
2023-04-19T06:53:56.441Z,12.10
2023-04-19T06:56:57.170Z,11.10
2023-04-19T06:59:28.508Z,12.70
2023-04-19T07:01:58.350Z,11.10
2023-04-19T07:04:27.153Z,11.20
2023-04-19T07:06:56.482Z,9.90
2023-04-19T07:09:24.778Z,13.20
2023-04-19T07:11:53.028Z,12.30
2023-04-19T07:14:21.201Z,11.80
2023-04-19T07:16:50.860Z,11.40
2023-04-19T07:19:21.332Z,11.50
2023-04-19T07:21:52.264Z,12.40
2023-04-19T07:24:20.946Z,9.80
2023-04-19T07:26:49.311Z,10.10
2023-04-19T07:29:18.310Z,9.30
2023-04-19T07:31:46.696Z,10.60
2023-04-19T07:34:15.129Z,14.00
2023-04-19T07:36:44.108Z,10.40
2023-04-19T07:39:13.684Z,14.10
2023-04-19T07:41:42.111Z,11.50
2023-04-19T07:44:11.741Z,10.00
2023-04-19T07:46:43.368Z,10.80
2023-04-19T07:49:11.608Z,12.60
2023-04-19T07:51:39.795Z,9.20
2023-04-19T07:54:09.816Z,9.00
2023-04-19T07:56:38.330Z,8.30
2023-04-19T07:59:11.308Z,8.00
2023-04-19T08:01:39.797Z,10.70
2023-04-19T08:04:08.508Z,10.70
2023-04-19T08:06:40.128Z,11.10
2023-04-19T08:09:08.510Z,9.00
2023-04-19T08:11:36.857Z,9.70
2023-04-19T08:14:26.155Z,9.50
2023-04-19T08:19:24.683Z,11.90
2023-04-19T08:21:52.948Z,10.10
2023-04-19T08:24:21.190Z,8.20
2023-04-19T08:26:54.122Z,10.00
2023-04-19T08:29:23.464Z,9.10
2023-04-19T08:31:51.912Z,7.00
2023-04-19T08:34:20.393Z,9.10
2023-04-19T08:37:00.143Z,7.40
2023-04-19T08:39:34.688Z,8.50
2023-04-19T08:42:13.373Z,7.30
2023-04-19T08:45:23.369Z,6.00
2023-04-19T08:47:59.806Z,6.90
2023-04-19T08:50:36.191Z,7.90
2023-04-19T08:56:03.456Z,6.80
2023-04-19T08:58:52.101Z,6.80
2023-04-19T09:01:34.587Z,8.60
2023-04-19T09:04:17.330Z,6.10
2023-04-19T09:06:49.863Z,6.70
2023-04-19T09:11:51.903Z,4.60
2023-04-19T09:14:22.337Z,4.60
2023-04-19T09:16:52.406Z,6.10
2023-04-19T09:19:25.526Z,4.20
2023-04-19T09:21:55.714Z,4.30
2023-04-19T09:27:12.501Z,4.80
2023-04-19T09:29:54.392Z,5.40
2023-04-19T09:32:24.115Z,5.50
2023-04-19T09:35:00.001Z,4.20
2023-04-19T09:40:21.442Z,4.70
2023-04-19T09:45:30.028Z,4.10
2023-04-19T09:48:06.264Z,3.40
2023-04-19T09:50:50.335Z,2.70
2023-04-19T09:53:24.421Z,2.70
2023-04-19T09:56:01.302Z,3.80
2023-04-19T10:01:14.256Z,2.20
2023-04-19T10:03:48.118Z,3.40
2023-04-19T10:08:56.164Z,3.90
2023-04-19T10:11:27.804Z,3.00
2023-04-19T10:14:01.600Z,2.90
2023-04-19T10:16:31.509Z,3.30
2023-04-19T10:19:01.556Z,4.20
2023-04-19T10:21:31.981Z,2.30
2023-04-19T10:24:01.073Z,2.20
2023-04-19T10:26:29.487Z,3.70
2023-04-19T10:28:58.300Z,3.10
2023-04-19T10:31:27.850Z,2.70
2023-04-19T10:33:58.021Z,2.90
2023-04-19T10:36:28.706Z,3.90
2023-04-19T10:38:57.056Z,2.50
2023-04-19T10:42:00.299Z,2.50
2023-04-19T10:44:38.028Z,2.80
2023-04-19T10:47:12.986Z,3.10
2023-04-19T10:49:47.344Z,3.30
2023-04-19T10:52:31.696Z,3.20
2023-04-19T10:55:05.968Z,2.50
2023-04-19T10:58:06.650Z,2.10
2023-04-19T11:00:36.858Z,2.00
2023-04-19T11:03:46.595Z,3.10
2023-04-19T11:06:17.989Z,1.90
2023-04-19T11:08:48.447Z,2.10
2023-04-19T11:11:17.127Z,3.60
2023-04-19T11:13:48.807Z,4.70
2023-04-19T11:16:19.022Z,2.50
2023-04-19T11:18:56.677Z,2.10
2023-04-19T11:21:25.715Z,2.70
2023-04-19T11:24:11.006Z,2.40
2023-04-19T11:26:39.587Z,2.40
2023-04-19T11:29:08.005Z,2.40
2023-04-19T11:31:36.602Z,2.50
2023-04-19T11:34:05.414Z,2.30
2023-04-19T11:36:36.974Z,2.20
2023-04-19T11:39:06.621Z,2.10
2023-04-19T11:41:40.760Z,2.20
2023-04-19T11:44:17.509Z,2.70
2023-04-19T11:47:04.136Z,4.10
2023-04-19T11:49:34.054Z,2.10
2023-04-19T11:52:06.311Z,2.90
2023-04-19T11:54:34.927Z,1.90
2023-04-19T11:57:05.761Z,2.20
2023-04-19T11:59:36.589Z,2.10
2023-04-19T12:02:12.946Z,2.90
2023-04-19T12:04:41.612Z,3.20
2023-04-19T12:07:10.830Z,3.10
2023-04-19T12:09:39.580Z,4.50
2023-04-19T12:12:07.963Z,2.70
2023-04-19T12:14:36.385Z,3.00
2023-04-19T12:17:13.922Z,5.00
2023-04-19T12:19:47.384Z,3.20
2023-04-19T12:22:20.080Z,2.40
2023-04-19T12:24:53.507Z,3.00
2023-04-19T12:27:22.281Z,3.70
2023-04-19T12:29:50.679Z,3.60
2023-04-19T12:32:18.888Z,3.30
2023-04-19T12:34:47.645Z,3.50
2023-04-19T12:37:15.941Z,5.20
2023-04-19T12:39:44.149Z,5.90
2023-04-19T12:42:12.350Z,3.70
2023-04-19T12:44:41.049Z,3.20
2023-04-19T12:47:09.340Z,3.10
2023-04-19T12:49:38.362Z,4.70
2023-04-19T12:52:07.064Z,5.50
2023-04-19T12:54:35.308Z,5.00
2023-04-19T12:57:04.213Z,4.30
2023-04-19T12:59:32.378Z,3.60
2023-04-19T13:02:00.776Z,4.30
2023-04-19T13:04:29.678Z,4.10
2023-04-19T13:06:58.046Z,5.20
2023-04-19T13:09:28.513Z,3.10
2023-04-19T13:11:57.888Z,2.30
2023-04-19T13:14:27.902Z,4.00
2023-04-19T13:16:56.204Z,3.10
2023-04-19T13:19:24.570Z,3.90
2023-04-19T13:21:54.059Z,4.20
2023-04-19T13:24:22.312Z,3.90
2023-04-19T13:26:50.668Z,3.40
2023-04-19T13:29:18.988Z,4.50
2023-04-19T13:31:47.420Z,5.40
2023-04-19T13:34:16.561Z,5.30
2023-04-19T13:36:45.053Z,3.60
2023-04-19T13:39:13.501Z,3.60
2023-04-19T13:41:42.062Z,4.70
2023-04-19T13:44:10.284Z,5.50
2023-04-19T13:46:38.502Z,3.90
2023-04-19T13:49:06.794Z,5.30
2023-04-19T13:51:46.570Z,3.70
2023-04-19T13:54:19.964Z,3.40
2023-04-19T13:56:51.404Z,3.80
2023-04-19T13:59:21.288Z,3.00
2023-04-19T14:01:49.496Z,5.90
2023-04-19T14:04:18.092Z,5.20
2023-04-19T14:06:46.612Z,4.30
2023-04-19T14:09:14.947Z,3.50
2023-04-19T14:11:43.322Z,4.30
2023-04-19T14:14:11.592Z,5.50
2023-04-19T14:16:42.581Z,7.80
2023-04-19T14:19:11.015Z,4.40
2023-04-19T14:21:39.258Z,5.30
2023-04-19T14:24:08.065Z,5.80
2023-04-19T14:26:36.471Z,4.50
2023-04-19T14:29:06.953Z,4.50
2023-04-19T14:31:35.351Z,5.70
2023-04-19T14:34:03.818Z,5.70
2023-04-19T14:36:32.109Z,5.60
2023-04-19T14:39:00.410Z,8.80
2023-04-19T14:41:28.762Z,4.90
2023-04-19T14:43:57.421Z,5.70
2023-04-19T14:46:25.957Z,7.40
2023-04-19T14:48:57.392Z,7.00
2023-04-19T14:51:26.080Z,6.20
2023-04-19T14:53:54.402Z,4.10
2023-04-19T14:56:22.708Z,5.00
2023-04-19T14:58:53.385Z,7.80
2023-04-19T15:01:23.693Z,4.90
2023-04-19T15:03:52.307Z,4.70
2023-04-19T15:06:23.386Z,5.70
2023-04-19T15:08:54.679Z,5.50
2023-04-19T15:11:25.382Z,4.20
2023-04-19T15:13:56.164Z,6.80
2023-04-19T15:16:27.887Z,6.70
2023-04-19T15:18:56.290Z,4.90
2023-04-19T15:21:24.990Z,8.50
2023-04-19T15:23:53.348Z,5.80
2023-04-19T15:26:24.315Z,4.40
2023-04-19T15:28:52.685Z,12.60
2023-04-19T15:31:21.512Z,5.30
2023-04-19T15:33:49.922Z,5.30
2023-04-19T15:36:21.290Z,4.60
2023-04-19T15:38:51.733Z,5.30
2023-04-19T15:41:20.143Z,6.20
2023-04-19T15:43:48.835Z,6.30
2023-04-19T15:46:18.264Z,6.60
2023-04-19T15:48:48.514Z,7.30
2023-04-19T15:51:17.043Z,6.00
2023-04-19T15:53:47.354Z,6.80
2023-04-19T15:56:15.569Z,6.90
2023-04-19T15:58:43.793Z,4.50
2023-04-19T16:01:13.272Z,5.10
2023-04-19T16:03:41.809Z,3.60
2023-04-19T16:06:13.984Z,3.30
2023-04-19T16:08:42.309Z,5.40
2023-04-19T16:11:10.850Z,5.80
2023-04-19T16:13:39.355Z,3.60
2023-04-19T16:16:07.686Z,4.60
2023-04-19T16:18:36.018Z,3.10
2023-04-19T16:21:04.533Z,3.60
2023-04-19T16:23:33.472Z,4.60
2023-04-19T16:26:01.966Z,5.60
2023-04-19T16:28:30.879Z,4.10
2023-04-19T16:30:59.238Z,6.30
2023-04-19T16:33:29.663Z,5.60
2023-04-19T16:35:57.947Z,6.00
2023-04-19T16:38:26.185Z,3.40
2023-04-19T16:40:54.993Z,3.40
2023-04-19T16:43:23.892Z,3.60
2023-04-19T16:45:53.006Z,5.50
2023-04-19T16:48:21.291Z,5.10
2023-04-19T16:50:54.288Z,5.20
2023-04-19T16:53:23.559Z,4.40
2023-04-19T16:55:52.139Z,4.50
2023-04-19T16:58:22.708Z,4.30
2023-04-19T17:00:51.189Z,5.10
2023-04-19T17:03:19.516Z,6.20
2023-04-19T17:05:48.100Z,4.60
2023-04-19T17:08:16.491Z,5.20
2023-04-19T17:10:44.746Z,5.70
2023-04-19T17:13:13.003Z,4.50
2023-04-19T17:15:42.906Z,4.80
2023-04-19T17:18:11.485Z,3.60
2023-04-19T17:20:39.903Z,5.10
2023-04-19T17:23:09.459Z,3.90
2023-04-19T17:25:40.825Z,5.30
2023-04-19T17:28:10.057Z,4.40
2023-04-19T17:30:38.372Z,5.50
2023-04-19T17:33:06.738Z,5.80
2023-04-19T17:35:35.555Z,4.10
2023-04-19T17:38:03.812Z,6.40
2023-04-19T17:40:32.089Z,6.40
2023-04-19T17:43:00.278Z,5.50
2023-04-19T17:45:28.459Z,6.00
2023-04-19T17:47:58.301Z,5.20
2023-04-19T17:50:26.781Z,7.30
2023-04-19T17:52:55.603Z,3.90
2023-04-19T17:55:25.564Z,4.30
2023-04-19T17:57:53.816Z,6.70
2023-04-19T18:00:22.211Z,5.70
2023-04-19T18:02:51.876Z,7.20
2023-04-19T18:05:20.507Z,6.30
2023-04-19T18:07:48.796Z,10.60
2023-04-19T18:10:17.058Z,8.20
2023-04-19T18:12:45.235Z,4.90
2023-04-19T18:15:13.452Z,4.50
2023-04-19T18:17:41.792Z,5.60
2023-04-19T18:20:13.123Z,5.20
2023-04-19T18:22:42.602Z,4.70
2023-04-19T18:25:11.144Z,3.90
2023-04-19T18:27:39.320Z,4.70
2023-04-19T18:30:08.322Z,4.10
2023-04-19T18:32:37.088Z,3.80
2023-04-19T18:35:10.106Z,6.30
2023-04-19T18:37:40.868Z,5.50
2023-04-19T18:40:09.763Z,3.20
2023-04-19T18:42:40.789Z,4.00
2023-04-19T18:45:09.893Z,4.70
2023-04-19T18:47:38.209Z,4.60
2023-04-19T18:50:08.789Z,4.50
2023-04-19T18:52:38.327Z,3.10
2023-04-19T18:55:07.242Z,4.50
2023-04-19T18:57:36.168Z,4.10
2023-04-19T19:00:06.514Z,7.30
2023-04-19T19:02:37.253Z,5.20
2023-04-19T19:05:08.413Z,6.90
2023-04-19T19:07:38.033Z,7.70
2023-04-19T19:10:17.086Z,6.30
2023-04-19T19:12:47.682Z,7.10
2023-04-19T19:15:16.607Z,8.80
2023-04-19T19:17:49.411Z,5.90
2023-04-19T19:20:19.914Z,4.00
2023-04-19T19:22:48.601Z,5.80
2023-04-19T19:25:17.160Z,4.50
2023-04-19T19:28:05.759Z,4.30
2023-04-19T19:30:35.883Z,6.00
2023-04-19T19:33:05.121Z,3.80
2023-04-19T19:35:33.694Z,4.10
2023-04-19T19:38:02.893Z,5.70
2023-04-19T19:40:32.682Z,7.60
2023-04-19T19:43:02.016Z,8.40
2023-04-19T19:45:31.637Z,5.70
2023-04-19T19:48:00.618Z,6.80
2023-04-19T19:53:01.877Z,8.40
2023-04-19T19:55:30.526Z,9.40
2023-04-19T20:03:02.126Z,7.10
2023-04-19T20:05:31.022Z,6.70
2023-04-19T20:08:12.440Z,6.50
2023-04-19T20:10:42.962Z,6.40
2023-04-19T20:13:13.413Z,6.00
2023-04-19T20:15:41.939Z,5.50
2023-04-19T20:18:10.356Z,4.10
2023-04-19T20:20:38.898Z,4.30
2023-04-19T20:23:07.238Z,4.70
2023-04-19T20:25:35.526Z,4.40
2023-04-19T20:28:04.969Z,4.40
2023-04-19T20:30:33.285Z,5.40
2023-04-19T20:33:01.522Z,6.40
2023-04-19T20:35:30.652Z,7.60
2023-04-19T20:38:02.839Z,7.70
2023-04-19T20:40:32.378Z,9.30
2023-04-19T20:43:01.091Z,7.90
2023-04-19T20:45:29.996Z,8.20
2023-04-19T20:47:59.095Z,8.70
2023-04-19T20:50:27.389Z,9.50
2023-04-19T20:52:56.895Z,8.30
2023-04-19T20:55:25.382Z,9.20
2023-04-19T20:57:53.700Z,10.50
2023-04-19T21:00:22.056Z,9.30
2023-04-19T21:02:50.460Z,11.20
2023-04-19T21:05:18.965Z,9.90
2023-04-19T21:07:47.232Z,9.40
2023-04-19T21:10:22.043Z,11.00
2023-04-19T21:12:53.123Z,8.70
2023-04-19T21:15:21.573Z,11.50
2023-04-19T21:17:49.770Z,11.70
2023-04-19T21:20:18.355Z,10.30
2023-04-19T21:22:47.271Z,11.90
2023-04-19T21:25:16.685Z,11.60
2023-04-19T21:27:44.911Z,15.60
2023-04-19T21:30:13.644Z,14.60
2023-04-19T21:32:42.570Z,13.20
2023-04-19T21:35:11.797Z,12.30
2023-04-19T21:37:40.034Z,15.70
2023-04-19T21:40:08.865Z,13.20
2023-04-19T21:42:37.176Z,16.20
2023-04-19T21:45:06.256Z,14.60
2023-04-19T21:47:34.589Z,14.60
2023-04-19T21:50:03.665Z,16.70
2023-04-19T21:52:31.901Z,19.20
2023-04-19T21:55:00.121Z,16.20
2023-04-19T21:57:28.610Z,16.20
2023-04-19T21:59:57.316Z,15.00
2023-04-19T22:02:25.797Z,17.90
2023-04-19T22:04:54.925Z,14.60
2023-04-19T22:07:24.061Z,15.90
2023-04-19T22:09:52.436Z,16.70
2023-04-19T22:12:20.579Z,20.10
2023-04-19T22:14:48.851Z,15.30
2023-04-19T22:17:21.979Z,13.50
2023-04-19T22:19:51.686Z,19.70
2023-04-19T22:22:20.144Z,11.30
2023-04-19T22:24:57.483Z,13.60
2023-04-19T22:27:26.493Z,16.80
2023-04-19T22:29:55.252Z,13.90
2023-04-19T22:32:24.524Z,14.20
2023-04-19T22:34:52.951Z,18.30
2023-04-19T22:37:21.269Z,11.70
2023-04-19T22:39:50.084Z,19.70
2023-04-19T22:42:18.366Z,11.80
2023-04-19T22:44:46.916Z,10.90
2023-04-19T22:47:15.368Z,16.20
2023-04-19T22:49:43.721Z,11.50
2023-04-19T22:52:12.161Z,15.90
2023-04-19T22:54:41.902Z,12.70
2023-04-19T22:57:12.134Z,9.90
2023-04-19T22:59:40.546Z,10.40
2023-04-19T23:02:09.051Z,11.30
2023-04-19T23:04:38.294Z,15.00
2023-04-19T23:07:07.248Z,13.80
2023-04-19T23:09:39.614Z,13.00
2023-04-19T23:12:09.461Z,14.60
2023-04-19T23:14:39.707Z,9.60
2023-04-19T23:17:08.809Z,16.20
2023-04-19T23:19:38.565Z,9.20
2023-04-19T23:22:06.833Z,10.70
2023-04-19T23:24:38.859Z,8.40
2023-04-19T23:27:07.296Z,7.70
2023-04-19T23:29:36.084Z,7.20
2023-04-19T23:32:04.732Z,8.10
2023-04-19T23:34:33.032Z,6.70
2023-04-19T23:37:01.330Z,11.20
2023-04-19T23:39:29.670Z,9.20
2023-04-19T23:41:58.166Z,7.30
2023-04-19T23:44:27.592Z,6.30
2023-04-19T23:46:56.254Z,7.00
2023-04-19T23:49:24.676Z,9.30
2023-04-19T23:51:52.877Z,8.80
2023-04-19T23:54:22.692Z,9.30
2023-04-19T23:56:52.355Z,7.60
2023-04-19T23:59:26.901Z,8.80
